Terminal Aerodrome Forecast
Issued by NWS

Home | Current Version | Previous Version | Text Only | Print | Product List | Glossary On
Versions: 1 2 3 4 5 6 7 8 9 10 11 12 13 14 15 16 17 18
952
FTUS43 KLSX 101138
TAFCPS
TAF
KCPS 101138Z 1012/1112 31010KT P6SM BKN150
     FM101700 29007KT P6SM OVC050
     FM102000 25005KT 2SM -SN BR OVC015
     FM110300 09006KT 4SM -SN BR OVC020
     FM110700 04007KT P6SM OVC040=

USA.gov is the U.S. government's official web portal to all federal, state and local government web resources and services.